sensor_id;sensor_type;location;lat;lon;timestamp;P1;P2;P0
69350;PMS7003;57106;51.446;-2.606;2023-05-19T00:00:27;2;2;
69350;PMS7003;57106;51.446;-2.606;2023-05-19T00:05:10;6;4;
69350;PMS7003;57106;51.446;-2.606;2023-05-19T00:07:33;5;3;
69350;PMS7003;57106;51.446;-2.606;2023-05-19T00:14:52;5;4;
69350;PMS7003;57106;51.446;-2.606;2023-05-19T00:17:15;3;3;
69350;PMS7003;57106;51.446;-2.606;2023-05-19T00:19:41;6;4;
69350;PMS7003;57106;51.446;-2.606;2023-05-19T00:22:06;6;5;
69350;PMS7003;57106;51.446;-2.606;2023-05-19T00:24:31;7;5;
69350;PMS7003;57106;51.446;-2.606;2023-05-19T00:27:01;4;4;
69350;PMS7003;57106;51.446;-2.606;2023-05-19T00:29:22;5;5;
69350;PMS7003;57106;51.446;-2.606;2023-05-19T00:31:48;6;4;
69350;PMS7003;57106;51.446;-2.606;2023-05-19T00:34:13;4;3;
69350;PMS7003;57106;51.446;-2.606;2023-05-19T00:36:39;5;4;
69350;PMS7003;57106;51.446;-2.606;2023-05-19T00:39:05;5;5;
69350;PMS7003;57106;51.446;-2.606;2023-05-19T00:41:30;5;4;
69350;PMS7003;57106;51.446;-2.606;2023-05-19T00:43:55;6;5;
69350;PMS7003;57106;51.446;-2.606;2023-05-19T00:46:21;4;4;
69350;PMS7003;57106;51.446;-2.606;2023-05-19T00:48:47;5;5;
69350;PMS7003;57106;51.446;-2.606;2023-05-19T00:51:12;6;4;
69350;PMS7003;57106;51.446;-2.606;2023-05-19T00:53:37;8;5;
69350;PMS7003;57106;51.446;-2.606;2023-05-19T01:05:45;6;5;
69350;PMS7003;57106;51.446;-2.606;2023-05-19T01:08:10;7;6;
69350;PMS7003;57106;51.446;-2.606;2023-05-19T01:10:36;5;5;
69350;PMS7003;57106;51.446;-2.606;2023-05-19T01:13:02;5;4;
69350;PMS7003;57106;51.446;-2.606;2023-05-19T01:15:27;6;5;
69350;PMS7003;57106;51.446;-2.606;2023-05-19T01:17:53;4;4;
69350;PMS7003;57106;51.446;-2.606;2023-05-19T01:20:19;7;7;
69350;PMS7003;57106;51.446;-2.606;2023-05-19T01:22:50;6;5;
69350;PMS7003;57106;51.446;-2.606;2023-05-19T01:25:20;8;6;
69350;PMS7003;57106;51.446;-2.606;2023-05-19T01:32:24;5;5;
69350;PMS7003;57106;51.446;-2.606;2023-05-19T01:34:50;5;4;
69350;PMS7003;57106;51.446;-2.606;2023-05-19T01:37:15;5;4;
69350;PMS7003;57106;51.446;-2.606;2023-05-19T01:39:41;8;7;
69350;PMS7003;57106;51.446;-2.606;2023-05-19T01:42:06;6;6;
69350;PMS7003;57106;51.446;-2.606;2023-05-19T01:44:35;6;5;
69350;PMS7003;57106;51.446;-2.606;2023-05-19T01:46:57;6;4;
69350;PMS7003;57106;51.446;-2.606;2023-05-19T01:49:23;6;6;
69350;PMS7003;57106;51.446;-2.606;2023-05-19T01:54:14;7;5;
69350;PMS7003;57106;51.446;-2.606;2023-05-19T01:56:41;4;4;
69350;PMS7003;57106;51.446;-2.606;2023-05-19T01:59:08;4;4;
69350;PMS7003;57106;51.446;-2.606;2023-05-19T02:01:32;7;6;
69350;PMS7003;57106;51.446;-2.606;2023-05-19T02:04:00;7;3;
69350;PMS7003;57106;51.446;-2.606;2023-05-19T02:06:24;6;5;
69350;PMS7003;57106;51.446;-2.606;2023-05-19T02:08:49;5;5;
69350;PMS7003;57106;51.446;-2.606;2023-05-19T02:11:13;6;6;
69350;PMS7003;57106;51.446;-2.606;2023-05-19T02:13:38;3;3;
69350;PMS7003;57106;51.446;-2.606;2023-05-19T02:16:04;6;6;
69350;PMS7003;57106;51.446;-2.606;2023-05-19T02:18:29;6;6;
69350;PMS7003;57106;51.446;-2.606;2023-05-19T02:20:54;9;7;
69350;PMS7003;57106;51.446;-2.606;2023-05-19T02:23:19;6;5;
69350;PMS7003;57106;51.446;-2.606;2023-05-19T02:25:45;5;5;
69350;PMS7003;57106;51.446;-2.606;2023-05-19T02:28:10;6;5;
69350;PMS7003;57106;51.446;-2.606;2023-05-19T02:30:36;7;7;
69350;PMS7003;57106;51.446;-2.606;2023-05-19T02:33:01;7;7;
69350;PMS7003;57106;51.446;-2.606;2023-05-19T02:35:27;6;6;
69350;PMS7003;57106;51.446;-2.606;2023-05-19T02:37:52;5;5;
69350;PMS7003;57106;51.446;-2.606;2023-05-19T02:40:18;8;6;
69350;PMS7003;57106;51.446;-2.606;2023-05-19T02:42:43;4;4;
69350;PMS7003;57106;51.446;-2.606;2023-05-19T02:45:10;8;7;
69350;PMS7003;57106;51.446;-2.606;2023-05-19T02:47:35;7;6;
69350;PMS7003;57106;51.446;-2.606;2023-05-19T02:50:00;7;7;
69350;PMS7003;57106;51.446;-2.606;2023-05-19T02:52:25;8;8;
69350;PMS7003;57106;51.446;-2.606;2023-05-19T02:54:51;6;5;
69350;PMS7003;57106;51.446;-2.606;2023-05-19T02:57:17;7;7;
69350;PMS7003;57106;51.446;-2.606;2023-05-19T02:59:42;7;7;
69350;PMS7003;57106;51.446;-2.606;2023-05-19T03:02:08;7;7;
69350;PMS7003;57106;51.446;-2.606;2023-05-19T03:04:33;5;5;
69350;PMS7003;57106;51.446;-2.606;2023-05-19T03:06:59;7;7;
69350;PMS7003;57106;51.446;-2.606;2023-05-19T03:09:24;6;5;
69350;PMS7003;57106;51.446;-2.606;2023-05-19T03:11:50;6;5;
69350;PMS7003;57106;51.446;-2.606;2023-05-19T03:14:15;6;6;
69350;PMS7003;57106;51.446;-2.606;2023-05-19T03:16:41;4;4;
69350;PMS7003;57106;51.446;-2.606;2023-05-19T03:19:06;6;6;
69350;PMS7003;57106;51.446;-2.606;2023-05-19T03:21:32;6;6;
69350;PMS7003;57106;51.446;-2.606;2023-05-19T03:23:57;7;6;
69350;PMS7003;57106;51.446;-2.606;2023-05-19T03:26:23;5;5;
69350;PMS7003;57106;51.446;-2.606;2023-05-19T03:28:48;7;6;
69350;PMS7003;57106;51.446;-2.606;2023-05-19T03:31:14;6;6;
69350;PMS7003;57106;51.446;-2.606;2023-05-19T03:33:39;5;5;
69350;PMS7003;57106;51.446;-2.606;2023-05-19T03:36:05;7;6;
69350;PMS7003;57106;51.446;-2.606;2023-05-19T03:38:30;8;7;
69350;PMS7003;57106;51.446;-2.606;2023-05-19T03:40:56;5;4;
69350;PMS7003;57106;51.446;-2.606;2023-05-19T03:43:21;5;5;
69350;PMS7003;57106;51.446;-2.606;2023-05-19T03:45:47;7;6;
69350;PMS7003;57106;51.446;-2.606;2023-05-19T03:48:12;5;5;
69350;PMS7003;57106;51.446;-2.606;2023-05-19T03:50:38;4;4;
69350;PMS7003;57106;51.446;-2.606;2023-05-19T03:53:04;5;5;
69350;PMS7003;57106;51.446;-2.606;2023-05-19T03:55:29;7;6;
69350;PMS7003;57106;51.446;-2.606;2023-05-19T03:57:55;6;6;
69350;PMS7003;57106;51.446;-2.606;2023-05-19T04:00:20;5;5;
69350;PMS7003;57106;51.446;-2.606;2023-05-19T04:02:46;6;5;
69350;PMS7003;57106;51.446;-2.606;2023-05-19T04:05:13;7;6;
69350;PMS7003;57106;51.446;-2.606;2023-05-19T04:07:37;7;7;
69350;PMS7003;57106;51.446;-2.606;2023-05-19T04:10:03;6;5;
69350;PMS7003;57106;51.446;-2.606;2023-05-19T04:12:28;7;5;
69350;PMS7003;57106;51.446;-2.606;2023-05-19T04:14:54;7;7;
69350;PMS7003;57106;51.446;-2.606;2023-05-19T04:17:19;6;5;
69350;PMS7003;57106;51.446;-2.606;2023-05-19T04:19:44;6;6;
69350;PMS7003;57106;51.446;-2.606;2023-05-19T04:22:10;5;5;
69350;PMS7003;57106;51.446;-2.606;2023-05-19T04:24:35;8;7;
69350;PMS7003;57106;51.446;-2.606;2023-05-19T04:27:01;7;7;
69350;PMS7003;57106;51.446;-2.606;2023-05-19T04:29:26;5;4;
69350;PMS7003;57106;51.446;-2.606;2023-05-19T04:31:52;8;8;
69350;PMS7003;57106;51.446;-2.606;2023-05-19T04:34:18;5;4;
69350;PMS7003;57106;51.446;-2.606;2023-05-19T04:36:43;6;6;
69350;PMS7003;57106;51.446;-2.606;2023-05-19T04:39:09;4;4;
69350;PMS7003;57106;51.446;-2.606;2023-05-19T04:41:35;5;5;
69350;PMS7003;57106;51.446;-2.606;2023-05-19T04:44:00;5;5;
69350;PMS7003;57106;51.446;-2.606;2023-05-19T04:46:25;5;5;
69350;PMS7003;57106;51.446;-2.606;2023-05-19T04:48:51;8;5;
69350;PMS7003;57106;51.446;-2.606;2023-05-19T04:51:18;4;4;
69350;PMS7003;57106;51.446;-2.606;2023-05-19T05:25:14;7;7;
69350;PMS7003;57106;51.446;-2.606;2023-05-19T05:27:39;6;6;
69350;PMS7003;57106;51.446;-2.606;2023-05-19T05:30:05;6;6;
69350;PMS7003;57106;51.446;-2.606;2023-05-19T05:32:29;7;7;
69350;PMS7003;57106;51.446;-2.606;2023-05-19T05:34:55;5;4;
69350;PMS7003;57106;51.446;-2.606;2023-05-19T05:37:25;6;6;
69350;PMS7003;57106;51.446;-2.606;2023-05-19T05:39:46;9;8;
69350;PMS7003;57106;51.446;-2.606;2023-05-19T05:42:11;5;5;
69350;PMS7003;57106;51.446;-2.606;2023-05-19T05:44:40;4;3;
69350;PMS7003;57106;51.446;-2.606;2023-05-19T05:47:02;9;6;
69350;PMS7003;57106;51.446;-2.606;2023-05-19T05:49:28;8;7;
69350;PMS7003;57106;51.446;-2.606;2023-05-19T05:51:54;7;7;
69350;PMS7003;57106;51.446;-2.606;2023-05-19T05:54:19;5;5;
69350;PMS7003;57106;51.446;-2.606;2023-05-19T05:56:44;7;6;
69350;PMS7003;57106;51.446;-2.606;2023-05-19T05:59:10;6;6;
69350;PMS7003;57106;51.446;-2.606;2023-05-19T06:01:36;8;8;
69350;PMS7003;57106;51.446;-2.606;2023-05-19T06:04:01;8;7;
69350;PMS7003;57106;51.446;-2.606;2023-05-19T06:06:28;6;5;
69350;PMS7003;57106;51.446;-2.606;2023-05-19T06:08:51;3;3;
69350;PMS7003;57106;51.446;-2.606;2023-05-19T06:11:17;7;7;
69350;PMS7003;57106;51.446;-2.606;2023-05-19T06:13:43;7;6;
69350;PMS7003;57106;51.446;-2.606;2023-05-19T06:16:08;6;4;
69350;PMS7003;57106;51.446;-2.606;2023-05-19T06:18:33;6;6;
69350;PMS7003;57106;51.446;-2.606;2023-05-19T06:20:59;6;5;
69350;PMS7003;57106;51.446;-2.606;2023-05-19T06:23:24;4;4;
69350;PMS7003;57106;51.446;-2.606;2023-05-19T06:25:50;7;6;
69350;PMS7003;57106;51.446;-2.606;2023-05-19T06:28:15;5;5;
69350;PMS7003;57106;51.446;-2.606;2023-05-19T06:30:41;4;4;
69350;PMS7003;57106;51.446;-2.606;2023-05-19T06:33:06;7;6;
69350;PMS7003;57106;51.446;-2.606;2023-05-19T06:35:32;5;5;
69350;PMS7003;57106;51.446;-2.606;2023-05-19T06:37:57;6;5;
69350;PMS7003;57106;51.446;-2.606;2023-05-19T06:40:23;6;5;
69350;PMS7003;57106;51.446;-2.606;2023-05-19T06:42:48;8;7;
69350;PMS7003;57106;51.446;-2.606;2023-05-19T06:45:14;7;6;
69350;PMS7003;57106;51.446;-2.606;2023-05-19T06:47:39;7;7;
69350;PMS7003;57106;51.446;-2.606;2023-05-19T06:50:05;9;8;
69350;PMS7003;57106;51.446;-2.606;2023-05-19T06:52:30;8;7;
69350;PMS7003;57106;51.446;-2.606;2023-05-19T06:54:58;8;5;
69350;PMS7003;57106;51.446;-2.606;2023-05-19T06:57:21;7;7;
69350;PMS7003;57106;51.446;-2.606;2023-05-19T06:59:47;4;3;
69350;PMS7003;57106;51.446;-2.606;2023-05-19T07:02:12;7;7;
69350;PMS7003;57106;51.446;-2.606;2023-05-19T07:04:38;6;6;
69350;PMS7003;57106;51.446;-2.606;2023-05-19T07:07:03;5;5;
69350;PMS7003;57106;51.446;-2.606;2023-05-19T07:09:29;8;5;
69350;PMS7003;57106;51.446;-2.606;2023-05-19T07:11:54;5;5;
69350;PMS7003;57106;51.446;-2.606;2023-05-19T07:16:45;4;4;
69350;PMS7003;57106;51.446;-2.606;2023-05-19T07:24:02;8;8;
69350;PMS7003;57106;51.446;-2.606;2023-05-19T07:26:28;7;7;
69350;PMS7003;57106;51.446;-2.606;2023-05-19T07:28:53;7;6;
69350;PMS7003;57106;51.446;-2.606;2023-05-19T07:31:18;6;5;
69350;PMS7003;57106;51.446;-2.606;2023-05-19T07:36:09;8;7;
69350;PMS7003;57106;51.446;-2.606;2023-05-19T07:38:34;7;5;
69350;PMS7003;57106;51.446;-2.606;2023-05-19T07:41:00;7;7;
69350;PMS7003;57106;51.446;-2.606;2023-05-19T07:43:25;6;6;
69350;PMS7003;57106;51.446;-2.606;2023-05-19T07:45:51;5;5;
69350;PMS7003;57106;51.446;-2.606;2023-05-19T07:48:16;4;4;
69350;PMS7003;57106;51.446;-2.606;2023-05-19T07:50:42;6;6;
69350;PMS7003;57106;51.446;-2.606;2023-05-19T07:53:07;6;6;
69350;PMS7003;57106;51.446;-2.606;2023-05-19T07:55:33;8;7;
69350;PMS7003;57106;51.446;-2.606;2023-05-19T07:57:58;5;5;
69350;PMS7003;57106;51.446;-2.606;2023-05-19T08:00:24;5;5;
69350;PMS7003;57106;51.446;-2.606;2023-05-19T08:02:49;5;5;
69350;PMS7003;57106;51.446;-2.606;2023-05-19T08:05:15;5;5;
69350;PMS7003;57106;51.446;-2.606;2023-05-19T08:07:40;6;6;
69350;PMS7003;57106;51.446;-2.606;2023-05-19T08:10:06;4;4;
69350;PMS7003;57106;51.446;-2.606;2023-05-19T08:12:31;8;7;
69350;PMS7003;57106;51.446;-2.606;2023-05-19T08:14:57;6;6;
69350;PMS7003;57106;51.446;-2.606;2023-05-19T08:17:22;6;6;
69350;PMS7003;57106;51.446;-2.606;2023-05-19T08:19:47;6;4;
69350;PMS7003;57106;51.446;-2.606;2023-05-19T08:22:13;4;4;
69350;PMS7003;57106;51.446;-2.606;2023-05-19T08:24:38;4;4;
69350;PMS7003;57106;51.446;-2.606;2023-05-19T08:27:04;7;7;
69350;PMS7003;57106;51.446;-2.606;2023-05-19T08:29:29;3;3;
69350;PMS7003;57106;51.446;-2.606;2023-05-19T08:31:55;5;5;
69350;PMS7003;57106;51.446;-2.606;2023-05-19T08:34:21;6;6;
69350;PMS7003;57106;51.446;-2.606;2023-05-19T08:36:45;5;5;
69350;PMS7003;57106;51.446;-2.606;2023-05-19T08:39:11;3;3;
69350;PMS7003;57106;51.446;-2.606;2023-05-19T08:41:36;4;4;
69350;PMS7003;57106;51.446;-2.606;2023-05-19T08:44:02;1;1;
69350;PMS7003;57106;51.446;-2.606;2023-05-19T08:46:27;3;3;
69350;PMS7003;57106;51.446;-2.606;2023-05-19T08:48:53;6;3;
69350;PMS7003;57106;51.446;-2.606;2023-05-19T08:51:19;2;2;
69350;PMS7003;57106;51.446;-2.606;2023-05-19T08:53:45;4;4;
69350;PMS7003;57106;51.446;-2.606;2023-05-19T08:56:10;4;4;
69350;PMS7003;57106;51.446;-2.606;2023-05-19T08:58:34;7;5;
69350;PMS7003;57106;51.446;-2.606;2023-05-19T09:01:00;4;4;
69350;PMS7003;57106;51.446;-2.606;2023-05-19T09:03:25;6;4;
69350;PMS7003;57106;51.446;-2.606;2023-05-19T09:05:51;5;5;
69350;PMS7003;57106;51.446;-2.606;2023-05-19T09:08:16;5;5;
69350;PMS7003;57106;51.446;-2.606;2023-05-19T09:10:41;6;6;
69350;PMS7003;57106;51.446;-2.606;2023-05-19T09:13:12;10;7;
69350;PMS7003;57106;51.446;-2.606;2023-05-19T09:15:33;6;6;
69350;PMS7003;57106;51.446;-2.606;2023-05-19T09:18:04;6;6;
69350;PMS7003;57106;51.446;-2.606;2023-05-19T09:20:23;6;6;
69350;PMS7003;57106;51.446;-2.606;2023-05-19T09:22:49;9;5;
69350;PMS7003;57106;51.446;-2.606;2023-05-19T09:25:17;6;5;
69350;PMS7003;57106;51.446;-2.606;2023-05-19T09:27:39;6;6;
69350;PMS7003;57106;51.446;-2.606;2023-05-19T09:30:06;7;6;
69350;PMS7003;57106;51.446;-2.606;2023-05-19T09:32:30;4;4;
69350;PMS7003;57106;51.446;-2.606;2023-05-19T09:34:55;5;5;
69350;PMS7003;57106;51.446;-2.606;2023-05-19T09:37:21;5;5;
69350;PMS7003;57106;51.446;-2.606;2023-05-19T09:39:47;8;5;
69350;PMS7003;57106;51.446;-2.606;2023-05-19T09:42:12;5;5;
69350;PMS7003;57106;51.446;-2.606;2023-05-19T09:44:37;7;6;
69350;PMS7003;57106;51.446;-2.606;2023-05-19T09:47:03;6;6;
69350;PMS7003;57106;51.446;-2.606;2023-05-19T09:49:28;5;5;
69350;PMS7003;57106;51.446;-2.606;2023-05-19T09:51:54;6;5;
69350;PMS7003;57106;51.446;-2.606;2023-05-19T09:54:19;4;4;
69350;PMS7003;57106;51.446;-2.606;2023-05-19T09:56:44;7;6;
69350;PMS7003;57106;51.446;-2.606;2023-05-19T09:59:10;7;6;
69350;PMS7003;57106;51.446;-2.606;2023-05-19T10:01:35;8;7;
69350;PMS7003;57106;51.446;-2.606;2023-05-19T10:04:01;5;5;
69350;PMS7003;57106;51.446;-2.606;2023-05-19T10:06:26;6;6;
69350;PMS7003;57106;51.446;-2.606;2023-05-19T10:08:52;6;6;
69350;PMS7003;57106;51.446;-2.606;2023-05-19T10:11:17;4;4;
69350;PMS7003;57106;51.446;-2.606;2023-05-19T10:13:43;6;6;
69350;PMS7003;57106;51.446;-2.606;2023-05-19T10:16:08;7;6;
69350;PMS7003;57106;51.446;-2.606;2023-05-19T10:18:34;5;5;
69350;PMS7003;57106;51.446;-2.606;2023-05-19T10:20:59;5;5;
69350;PMS7003;57106;51.446;-2.606;2023-05-19T10:23:24;4;4;
69350;PMS7003;57106;51.446;-2.606;2023-05-19T10:25:50;8;7;
69350;PMS7003;57106;51.446;-2.606;2023-05-19T10:28:15;5;5;
69350;PMS7003;57106;51.446;-2.606;2023-05-19T10:30:42;6;5;
69350;PMS7003;57106;51.446;-2.606;2023-05-19T10:33:06;6;6;
69350;PMS7003;57106;51.446;-2.606;2023-05-19T10:35:34;4;4;
69350;PMS7003;57106;51.446;-2.606;2023-05-19T10:37:57;7;7;
69350;PMS7003;57106;51.446;-2.606;2023-05-19T10:40:24;6;6;
69350;PMS7003;57106;51.446;-2.606;2023-05-19T10:42:52;7;7;
69350;PMS7003;57106;51.446;-2.606;2023-05-19T10:45:14;5;4;
69350;PMS7003;57106;51.446;-2.606;2023-05-19T10:47:39;9;5;
69350;PMS7003;57106;51.446;-2.606;2023-05-19T11:11:52;7;7;
69350;PMS7003;57106;51.446;-2.606;2023-05-19T11:23:59;7;7;
69350;PMS7003;57106;51.446;-2.606;2023-05-19T11:28:50;6;6;
69350;PMS7003;57106;51.446;-2.606;2023-05-19T11:31:15;8;7;
69350;PMS7003;57106;51.446;-2.606;2023-05-19T11:33:40;7;7;
69350;PMS7003;57106;51.446;-2.606;2023-05-19T11:36:06;7;7;
69350;PMS7003;57106;51.446;-2.606;2023-05-19T11:38:31;9;8;
69350;PMS7003;57106;51.446;-2.606;2023-05-19T11:40:57;9;7;
69350;PMS7003;57106;51.446;-2.606;2023-05-19T11:43:22;8;7;
69350;PMS7003;57106;51.446;-2.606;2023-05-19T11:45:48;6;6;
69350;PMS7003;57106;51.446;-2.606;2023-05-19T11:48:13;8;8;
69350;PMS7003;57106;51.446;-2.606;2023-05-19T11:50:39;8;8;
69350;PMS7003;57106;51.446;-2.606;2023-05-19T11:55:29;7;7;
69350;PMS7003;57106;51.446;-2.606;2023-05-19T11:57:56;5;5;
69350;PMS7003;57106;51.446;-2.606;2023-05-19T12:00:21;6;6;
69350;PMS7003;57106;51.446;-2.606;2023-05-19T12:02:45;6;6;
69350;PMS7003;57106;51.446;-2.606;2023-05-19T12:07:36;7;6;
69350;PMS7003;57106;51.446;-2.606;2023-05-19T12:10:02;9;7;
69350;PMS7003;57106;51.446;-2.606;2023-05-19T12:12:28;7;7;
69350;PMS7003;57106;51.446;-2.606;2023-05-19T12:14:52;7;6;
69350;PMS7003;57106;51.446;-2.606;2023-05-19T12:17:19;8;8;
69350;PMS7003;57106;51.446;-2.606;2023-05-19T12:19:43;6;6;
69350;PMS7003;57106;51.446;-2.606;2023-05-19T12:22:09;8;8;
69350;PMS7003;57106;51.446;-2.606;2023-05-19T12:24:34;6;6;
69350;PMS7003;57106;51.446;-2.606;2023-05-19T12:27:04;7;7;
69350;PMS7003;57106;51.446;-2.606;2023-05-19T12:29:26;7;7;
69350;PMS7003;57106;51.446;-2.606;2023-05-19T12:31:50;7;6;
69350;PMS7003;57106;51.446;-2.606;2023-05-19T12:34:16;7;7;
69350;PMS7003;57106;51.446;-2.606;2023-05-19T12:36:41;5;5;
69350;PMS7003;57106;51.446;-2.606;2023-05-19T12:39:07;8;8;
69350;PMS7003;57106;51.446;-2.606;2023-05-19T12:41:32;8;8;
69350;PMS7003;57106;51.446;-2.606;2023-05-19T12:43:57;7;7;
69350;PMS7003;57106;51.446;-2.606;2023-05-19T12:46:23;7;7;
69350;PMS7003;57106;51.446;-2.606;2023-05-19T12:48:48;8;8;
69350;PMS7003;57106;51.446;-2.606;2023-05-19T12:51:15;8;8;
69350;PMS7003;57106;51.446;-2.606;2023-05-19T12:53:39;9;9;
69350;PMS7003;57106;51.446;-2.606;2023-05-19T12:56:09;9;9;
69350;PMS7003;57106;51.446;-2.606;2023-05-19T12:58:32;11;8;
69350;PMS7003;57106;51.446;-2.606;2023-05-19T13:00:57;8;8;
69350;PMS7003;57106;51.446;-2.606;2023-05-19T13:03:21;8;8;
69350;PMS7003;57106;51.446;-2.606;2023-05-19T13:05:46;8;6;
69350;PMS7003;57106;51.446;-2.606;2023-05-19T13:08:12;7;7;
69350;PMS7003;57106;51.446;-2.606;2023-05-19T13:10:37;5;5;
69350;PMS7003;57106;51.446;-2.606;2023-05-19T13:13:03;8;8;
69350;PMS7003;57106;51.446;-2.606;2023-05-19T13:15:28;6;6;
69350;PMS7003;57106;51.446;-2.606;2023-05-19T13:17:53;7;7;
69350;PMS7003;57106;51.446;-2.606;2023-05-19T13:20:18;9;9;
69350;PMS7003;57106;51.446;-2.606;2023-05-19T13:22:44;6;6;
69350;PMS7003;57106;51.446;-2.606;2023-05-19T13:25:09;8;8;
69350;PMS7003;57106;51.446;-2.606;2023-05-19T13:27:34;8;7;
69350;PMS7003;57106;51.446;-2.606;2023-05-19T13:30:00;7;7;
69350;PMS7003;57106;51.446;-2.606;2023-05-19T13:32:26;7;7;
69350;PMS7003;57106;51.446;-2.606;2023-05-19T13:34:51;7;7;
69350;PMS7003;57106;51.446;-2.606;2023-05-19T13:37:17;7;7;
69350;PMS7003;57106;51.446;-2.606;2023-05-19T13:39:42;7;7;
69350;PMS7003;57106;51.446;-2.606;2023-05-19T13:42:08;6;6;
69350;PMS7003;57106;51.446;-2.606;2023-05-19T13:44:34;5;5;
69350;PMS7003;57106;51.446;-2.606;2023-05-19T13:46:59;4;4;
69350;PMS7003;57106;51.446;-2.606;2023-05-19T13:49:24;6;6;
69350;PMS7003;57106;51.446;-2.606;2023-05-19T13:51:50;4;3;
69350;PMS7003;57106;51.446;-2.606;2023-05-19T13:54:16;7;5;
69350;PMS7003;57106;51.446;-2.606;2023-05-19T13:56:41;5;5;
69350;PMS7003;57106;51.446;-2.606;2023-05-19T13:59:06;5;5;
69350;PMS7003;57106;51.446;-2.606;2023-05-19T14:01:31;6;6;
69350;PMS7003;57106;51.446;-2.606;2023-05-19T14:03:57;4;4;
69350;PMS7003;57106;51.446;-2.606;2023-05-19T14:06:22;5;5;
69350;PMS7003;57106;51.446;-2.606;2023-05-19T14:08:47;7;5;
69350;PMS7003;57106;51.446;-2.606;2023-05-19T14:11:16;7;6;
69350;PMS7003;57106;51.446;-2.606;2023-05-19T14:13:39;3;3;
69350;PMS7003;57106;51.446;-2.606;2023-05-19T14:16:04;5;5;
69350;PMS7003;57106;51.446;-2.606;2023-05-19T14:18:29;5;5;
69350;PMS7003;57106;51.446;-2.606;2023-05-19T14:20:54;4;4;
69350;PMS7003;57106;51.446;-2.606;2023-05-19T14:23:20;3;3;
69350;PMS7003;57106;51.446;-2.606;2023-05-19T14:25:45;5;4;
69350;PMS7003;57106;51.446;-2.606;2023-05-19T14:28:12;2;2;
69350;PMS7003;57106;51.446;-2.606;2023-05-19T14:30:36;2;2;
69350;PMS7003;57106;51.446;-2.606;2023-05-19T14:33:01;2;2;
69350;PMS7003;57106;51.446;-2.606;2023-05-19T14:35:26;2;2;
69350;PMS7003;57106;51.446;-2.606;2023-05-19T14:37:52;2;2;
69350;PMS7003;57106;51.446;-2.606;2023-05-19T14:42:43;2;2;
69350;PMS7003;57106;51.446;-2.606;2023-05-19T14:45:08;1;1;
69350;PMS7003;57106;51.446;-2.606;2023-05-19T14:47:33;2;2;
69350;PMS7003;57106;51.446;-2.606;2023-05-19T14:49:59;1;1;
69350;PMS7003;57106;51.446;-2.606;2023-05-19T14:52:24;1;1;
69350;PMS7003;57106;51.446;-2.606;2023-05-19T14:54:49;2;2;
69350;PMS7003;57106;51.446;-2.606;2023-05-19T14:57:15;2;2;
69350;PMS7003;57106;51.446;-2.606;2023-05-19T14:59:40;1;1;
69350;PMS7003;57106;51.446;-2.606;2023-05-19T15:02:06;2;1;
69350;PMS7003;57106;51.446;-2.606;2023-05-19T15:04:31;2;2;
69350;PMS7003;57106;51.446;-2.606;2023-05-19T15:06:56;1;1;
69350;PMS7003;57106;51.446;-2.606;2023-05-19T15:09:22;1;1;
69350;PMS7003;57106;51.446;-2.606;2023-05-19T15:11:47;3;1;
69350;PMS7003;57106;51.446;-2.606;2023-05-19T15:14:12;1;1;
69350;PMS7003;57106;51.446;-2.606;2023-05-19T15:16:38;2;2;
69350;PMS7003;57106;51.446;-2.606;2023-05-19T15:19:03;1;1;
69350;PMS7003;57106;51.446;-2.606;2023-05-19T15:21:28;3;3;
69350;PMS7003;57106;51.446;-2.606;2023-05-19T15:23:54;2;2;
69350;PMS7003;57106;51.446;-2.606;2023-05-19T15:26:19;1;1;
69350;PMS7003;57106;51.446;-2.606;2023-05-19T15:28:45;1;1;
69350;PMS7003;57106;51.446;-2.606;2023-05-19T15:31:10;2;2;
69350;PMS7003;57106;51.446;-2.606;2023-05-19T15:33:35;2;2;
69350;PMS7003;57106;51.446;-2.606;2023-05-19T15:36:01;3;3;
69350;PMS7003;57106;51.446;-2.606;2023-05-19T15:38:27;2;2;
69350;PMS7003;57106;51.446;-2.606;2023-05-19T15:40:52;2;2;
69350;PMS7003;57106;51.446;-2.606;2023-05-19T15:43:17;1;1;
69350;PMS7003;57106;51.446;-2.606;2023-05-19T15:45:42;1;1;
69350;PMS7003;57106;51.446;-2.606;2023-05-19T15:48:08;2;2;
69350;PMS7003;57106;51.446;-2.606;2023-05-19T15:50:33;0;0;
69350;PMS7003;57106;51.446;-2.606;2023-05-19T15:52:59;2;2;
69350;PMS7003;57106;51.446;-2.606;2023-05-19T15:55:24;0;0;
69350;PMS7003;57106;51.446;-2.606;2023-05-19T15:57:49;1;1;
69350;PMS7003;57106;51.446;-2.606;2023-05-19T16:00:15;0;0;
69350;PMS7003;57106;51.446;-2.606;2023-05-19T16:02:40;0;0;
69350;PMS7003;57106;51.446;-2.606;2023-05-19T16:05:06;0;0;
69350;PMS7003;57106;51.446;-2.606;2023-05-19T16:09:56;0;0;
69350;PMS7003;57106;51.446;-2.606;2023-05-19T16:12:22;1;0;
69350;PMS7003;57106;51.446;-2.606;2023-05-19T16:14:47;0;0;
69350;PMS7003;57106;51.446;-2.606;2023-05-19T16:19:39;0;0;
69350;PMS7003;57106;51.446;-2.606;2023-05-19T16:22:03;0;0;
69350;PMS7003;57106;51.446;-2.606;2023-05-19T16:24:29;1;1;
69350;PMS7003;57106;51.446;-2.606;2023-05-19T16:26:54;1;1;
69350;PMS7003;57106;51.446;-2.606;2023-05-19T16:29:19;1;0;
69350;PMS7003;57106;51.446;-2.606;2023-05-19T16:31:45;0;0;
69350;PMS7003;57106;51.446;-2.606;2023-05-19T16:34:10;0;0;
69350;PMS7003;57106;51.446;-2.606;2023-05-19T16:36:35;0;0;
69350;PMS7003;57106;51.446;-2.606;2023-05-19T16:39:01;0;0;
69350;PMS7003;57106;51.446;-2.606;2023-05-19T16:41:26;1;1;
69350;PMS7003;57106;51.446;-2.606;2023-05-19T16:43:51;1;1;
69350;PMS7003;57106;51.446;-2.606;2023-05-19T16:46:17;0;0;
69350;PMS7003;57106;51.446;-2.606;2023-05-19T16:48:42;1;1;
69350;PMS7003;57106;51.446;-2.606;2023-05-19T16:51:07;1;1;
69350;PMS7003;57106;51.446;-2.606;2023-05-19T16:55:58;1;1;
69350;PMS7003;57106;51.446;-2.606;2023-05-19T16:58:24;1;1;
69350;PMS7003;57106;51.446;-2.606;2023-05-19T17:00:50;2;2;
69350;PMS7003;57106;51.446;-2.606;2023-05-19T17:03:14;0;0;
69350;PMS7003;57106;51.446;-2.606;2023-05-19T17:05:40;1;1;
69350;PMS7003;57106;51.446;-2.606;2023-05-19T17:08:05;2;2;
69350;PMS7003;57106;51.446;-2.606;2023-05-19T17:10:30;2;2;
69350;PMS7003;57106;51.446;-2.606;2023-05-19T17:12:56;3;2;
69350;PMS7003;57106;51.446;-2.606;2023-05-19T17:15:21;2;2;
69350;PMS7003;57106;51.446;-2.606;2023-05-19T17:17:47;2;2;
69350;PMS7003;57106;51.446;-2.606;2023-05-19T17:20:12;3;3;
69350;PMS7003;57106;51.446;-2.606;2023-05-19T17:46:51;4;3;
69350;PMS7003;57106;51.446;-2.606;2023-05-19T17:51:42;9;9;
69350;PMS7003;57106;51.446;-2.606;2023-05-19T17:54:08;10;8;
69350;PMS7003;57106;51.446;-2.606;2023-05-19T17:56:33;6;5;
69350;PMS7003;57106;51.446;-2.606;2023-05-19T17:58:59;8;8;
69350;PMS7003;57106;51.446;-2.606;2023-05-19T18:01:24;7;6;
69350;PMS7003;57106;51.446;-2.606;2023-05-19T18:03:49;9;7;
69350;PMS7003;57106;51.446;-2.606;2023-05-19T18:06:15;7;7;
69350;PMS7003;57106;51.446;-2.606;2023-05-19T18:08:40;7;7;
69350;PMS7003;57106;51.446;-2.606;2023-05-19T18:11:06;5;5;
69350;PMS7003;57106;51.446;-2.606;2023-05-19T18:13:31;8;8;
69350;PMS7003;57106;51.446;-2.606;2023-05-19T18:15:56;10;9;
69350;PMS7003;57106;51.446;-2.606;2023-05-19T18:18:22;8;8;
69350;PMS7003;57106;51.446;-2.606;2023-05-19T18:20:47;8;8;
69350;PMS7003;57106;51.446;-2.606;2023-05-19T18:23:13;9;8;
69350;PMS7003;57106;51.446;-2.606;2023-05-19T18:25:39;7;7;
69350;PMS7003;57106;51.446;-2.606;2023-05-19T18:28:03;8;8;
69350;PMS7003;57106;51.446;-2.606;2023-05-19T18:30:29;8;8;
69350;PMS7003;57106;51.446;-2.606;2023-05-19T18:32:54;9;9;
69350;PMS7003;57106;51.446;-2.606;2023-05-19T18:35:19;9;9;
69350;PMS7003;57106;51.446;-2.606;2023-05-19T18:37:45;10;8;
69350;PMS7003;57106;51.446;-2.606;2023-05-19T18:40:11;7;7;